createdAt,value
2023-04-18T00:01:02.999Z,11.56
2023-04-18T00:03:29.942Z,11.70
2023-04-18T00:05:58.020Z,11.62
2023-04-18T00:08:24.604Z,11.67
2023-04-18T00:10:51.088Z,12.18
2023-04-18T00:13:18.596Z,11.86
2023-04-18T00:15:46.317Z,11.77
2023-04-18T00:18:15.892Z,11.90
2023-04-18T00:20:42.504Z,11.91
2023-04-18T00:23:09.353Z,11.51
2023-04-18T00:25:36.338Z,11.65
2023-04-18T00:28:02.824Z,11.80
2023-04-18T00:30:29.365Z,11.93
2023-04-18T00:32:56.164Z,11.76
2023-04-18T00:35:24.991Z,11.57
2023-04-18T00:37:51.897Z,11.62
2023-04-18T00:40:18.445Z,11.51
2023-04-18T00:42:44.909Z,11.77
2023-04-18T00:45:13.819Z,11.78
2023-04-18T00:47:40.450Z,11.44
2023-04-18T00:50:07.941Z,11.88
2023-04-18T00:52:35.850Z,11.66
2023-04-18T00:55:06.633Z,11.50
2023-04-18T00:57:33.456Z,11.24
2023-04-18T01:00:00.972Z,11.61
2023-04-18T01:02:32.027Z,11.55
2023-04-18T01:04:58.664Z,11.59
2023-04-18T01:07:26.489Z,11.53
2023-04-18T01:09:56.638Z,11.38
2023-04-18T01:12:23.131Z,11.34
2023-04-18T01:14:49.610Z,11.19
2023-04-18T01:17:16.302Z,11.25
2023-04-18T01:19:44.444Z,11.25
2023-04-18T01:22:13.288Z,11.13
2023-04-18T01:24:40.981Z,11.07
2023-04-18T01:27:11.256Z,11.19
2023-04-18T01:29:39.002Z,11.25
2023-04-18T01:32:06.012Z,11.38
2023-04-18T01:34:32.448Z,11.52
2023-04-18T01:36:59.297Z,11.41
2023-04-18T01:39:25.792Z,11.24
2023-04-18T01:41:52.310Z,11.11
2023-04-18T01:44:18.804Z,11.18
2023-04-18T01:46:46.042Z,11.07
2023-04-18T01:49:12.784Z,11.14
2023-04-18T01:51:39.481Z,11.07
2023-04-18T01:54:06.148Z,11.10
2023-04-18T01:56:32.682Z,11.07
2023-04-18T01:59:00.778Z,11.17
2023-04-18T02:01:27.922Z,11.22
2023-04-18T02:03:54.582Z,11.33
2023-04-18T02:06:21.225Z,11.27
2023-04-18T02:08:47.856Z,11.35
2023-04-18T02:11:14.349Z,11.38
2023-04-18T02:13:41.212Z,11.38
2023-04-18T02:16:12.060Z,11.39
2023-04-18T02:18:40.099Z,11.73
2023-04-18T02:21:07.160Z,12.32
2023-04-18T02:23:33.690Z,11.97
2023-04-18T02:26:00.213Z,11.63
2023-04-18T02:28:26.674Z,11.17
2023-04-18T02:30:54.161Z,10.95
2023-04-18T02:33:20.697Z,11.10
2023-04-18T02:35:47.188Z,10.88
2023-04-18T02:38:15.822Z,10.80
2023-04-18T02:40:42.399Z,10.77
2023-04-18T02:43:09.016Z,10.83
2023-04-18T02:45:35.623Z,10.99
2023-04-18T02:48:02.770Z,10.77
2023-04-18T02:50:30.942Z,10.65
2023-04-18T02:52:58.093Z,10.64
2023-04-18T02:55:32.557Z,10.67
2023-04-18T02:58:00.392Z,10.71
2023-04-18T03:00:36.176Z,10.85
2023-04-18T03:03:22.919Z,10.79
2023-04-18T03:05:57.209Z,10.46
2023-04-18T03:08:23.908Z,10.42
2023-04-18T03:10:50.608Z,10.44
2023-04-18T03:13:21.074Z,10.35
2023-04-18T03:15:47.937Z,10.34
2023-04-18T03:18:14.708Z,10.19
2023-04-18T03:20:42.280Z,10.14
2023-04-18T03:23:08.937Z,10.06
2023-04-18T03:25:35.580Z,10.06
2023-04-18T03:28:03.071Z,10.13
2023-04-18T03:30:29.767Z,10.20
2023-04-18T03:32:59.424Z,10.30
2023-04-18T03:35:25.988Z,10.27
2023-04-18T03:37:52.626Z,10.21
2023-04-18T03:40:24.048Z,10.35
2023-04-18T03:42:53.266Z,10.18
2023-04-18T03:45:20.271Z,10.14
2023-04-18T03:47:47.354Z,10.09
2023-04-18T03:50:15.212Z,10.15
2023-04-18T03:52:43.146Z,10.04
2023-04-18T03:55:09.818Z,9.97
2023-04-18T03:57:37.044Z,10.04
2023-04-18T04:00:08.113Z,10.09
2023-04-18T04:02:42.230Z,10.16
2023-04-18T04:05:11.480Z,10.13
2023-04-18T04:07:38.417Z,10.09
2023-04-18T04:10:06.057Z,10.15
2023-04-18T04:12:32.599Z,10.09
2023-04-18T04:14:59.288Z,10.10
2023-04-18T04:17:26.175Z,10.12
2023-04-18T04:19:53.144Z,10.01
2023-04-18T04:22:20.992Z,10.21
2023-04-18T04:24:47.913Z,10.28
2023-04-18T04:27:18.919Z,10.28
2023-04-18T04:29:46.382Z,10.28
2023-04-18T04:32:13.570Z,10.19
2023-04-18T04:34:41.637Z,10.15
2023-04-18T04:37:10.552Z,10.16
2023-04-18T04:39:46.555Z,10.12
2023-04-18T04:42:28.459Z,10.23
2023-04-18T04:45:03.611Z,10.40
2023-04-18T04:47:30.348Z,10.47
2023-04-18T04:49:56.832Z,10.57
2023-04-18T04:52:23.291Z,10.55
2023-04-18T04:54:50.734Z,10.56
2023-04-18T04:57:19.046Z,10.53
2023-04-18T04:59:45.662Z,10.57
2023-04-18T05:02:12.436Z,10.67
2023-04-18T05:04:39.295Z,10.74
2023-04-18T05:07:05.874Z,10.73
2023-04-18T05:09:32.416Z,10.66
2023-04-18T05:11:58.881Z,10.72
2023-04-18T05:14:25.915Z,10.66
2023-04-18T05:16:52.489Z,10.76
2023-04-18T05:19:18.953Z,10.88
2023-04-18T05:21:45.454Z,10.86
2023-04-18T05:24:12.046Z,11.11
2023-04-18T05:26:38.642Z,11.15
2023-04-18T05:29:05.429Z,11.08
2023-04-18T05:31:32.302Z,11.10
2023-04-18T05:33:58.874Z,11.00
2023-04-18T05:36:25.365Z,11.07
2023-04-18T05:38:51.821Z,11.24
2023-04-18T05:41:18.303Z,11.63
2023-04-18T05:43:51.135Z,11.46
2023-04-18T05:46:28.804Z,11.71
2023-04-18T05:48:55.425Z,12.03
2023-04-18T05:51:21.941Z,12.20
2023-04-18T05:53:48.418Z,12.59
2023-04-18T05:56:14.947Z,12.89
2023-04-18T05:58:41.408Z,12.91
2023-04-18T06:01:08.989Z,12.94
2023-04-18T06:03:35.687Z,13.01
2023-04-18T06:06:02.578Z,13.45
2023-04-18T06:08:29.197Z,13.32
2023-04-18T06:10:55.668Z,13.38
2023-04-18T06:13:22.126Z,13.60
2023-04-18T06:15:48.744Z,13.74
2023-04-18T06:18:15.336Z,13.91
2023-04-18T06:20:43.896Z,14.05
2023-04-18T06:23:10.359Z,14.09
2023-04-18T06:25:36.854Z,13.96
2023-04-18T06:28:03.318Z,14.14
2023-04-18T06:30:29.918Z,14.03
2023-04-18T06:32:56.442Z,14.29
2023-04-18T06:35:24.607Z,14.48
2023-04-18T06:37:52.905Z,14.56
2023-04-18T06:40:19.468Z,14.88
2023-04-18T06:42:46.297Z,14.71
2023-04-18T06:45:12.745Z,14.84
2023-04-18T06:47:40.134Z,15.06
2023-04-18T06:50:07.565Z,15.19
2023-04-18T06:52:35.414Z,15.34
2023-04-18T06:55:01.973Z,15.58
2023-04-18T06:57:28.448Z,15.56
2023-04-18T06:59:54.943Z,15.22
2023-04-18T07:02:21.539Z,15.34
2023-04-18T07:04:48.115Z,15.68
2023-04-18T07:07:14.609Z,15.92
2023-04-18T07:09:41.059Z,16.17
2023-04-18T07:12:07.606Z,16.45
2023-04-18T07:14:34.441Z,16.43
2023-04-18T07:17:01.599Z,16.51
2023-04-18T07:19:28.162Z,16.76
2023-04-18T07:21:55.916Z,16.80
2023-04-18T07:24:23.630Z,16.60
2023-04-18T07:26:52.042Z,16.58
2023-04-18T07:29:19.613Z,16.91
2023-04-18T07:31:46.306Z,17.19
2023-04-18T07:34:14.083Z,17.06
2023-04-18T07:36:40.736Z,16.96
2023-04-18T07:39:07.633Z,17.25
2023-04-18T07:41:34.423Z,17.78
2023-04-18T07:44:01.575Z,17.48
2023-04-18T07:46:28.238Z,17.70
2023-04-18T07:48:54.912Z,17.90
2023-04-18T07:51:21.888Z,17.65
2023-04-18T07:53:48.313Z,17.99
2023-04-18T07:56:14.988Z,18.19
2023-04-18T07:58:41.500Z,18.28
2023-04-18T08:01:08.974Z,18.17
2023-04-18T08:03:37.115Z,18.60
2023-04-18T08:06:03.842Z,18.59
2023-04-18T08:08:30.368Z,18.26
2023-04-18T08:10:56.881Z,17.39
2023-04-18T08:13:23.378Z,16.50
2023-04-18T08:15:49.885Z,16.64
2023-04-18T08:18:16.379Z,16.65
2023-04-18T08:20:42.871Z,16.54
2023-04-18T08:23:11.423Z,16.40
2023-04-18T08:25:39.665Z,15.87
2023-04-18T08:28:06.346Z,15.39
2023-04-18T08:30:32.865Z,15.16
2023-04-18T08:33:00.152Z,15.19
2023-04-18T08:35:26.863Z,15.04
2023-04-18T08:37:53.430Z,14.89
2023-04-18T08:40:20.550Z,14.97
2023-04-18T08:42:47.086Z,14.87
2023-04-18T08:45:14.181Z,14.59
2023-04-18T08:47:41.328Z,14.69
2023-04-18T08:50:09.253Z,14.18
2023-04-18T08:52:36.351Z,14.30
2023-04-18T08:55:03.814Z,14.36
2023-04-18T08:57:31.290Z,14.34
2023-04-18T09:00:00.669Z,14.54
2023-04-18T09:02:38.901Z,14.64
2023-04-18T09:05:11.846Z,14.51
2023-04-18T09:07:38.413Z,14.83
2023-04-18T09:10:05.027Z,14.94
2023-04-18T09:12:32.671Z,14.85
2023-04-18T09:15:14.102Z,15.05
2023-04-18T09:17:42.484Z,14.97
2023-04-18T09:20:12.991Z,14.98
2023-04-18T09:22:46.122Z,14.95
2023-04-18T09:25:23.805Z,15.10
2023-04-18T09:27:50.345Z,15.42
2023-04-18T09:30:29.012Z,16.09
2023-04-18T09:33:00.286Z,15.27
2023-04-18T09:35:27.234Z,15.18
2023-04-18T09:37:53.672Z,15.32
2023-04-18T09:40:20.357Z,15.12
2023-04-18T09:42:48.109Z,15.85
2023-04-18T09:45:15.486Z,15.86
2023-04-18T09:47:42.064Z,15.67
2023-04-18T09:50:09.424Z,15.36
2023-04-18T09:52:37.553Z,15.35
2023-04-18T09:55:05.370Z,15.56
2023-04-18T09:57:32.836Z,15.44
2023-04-18T10:00:02.370Z,15.71
2023-04-18T10:02:35.296Z,15.71
2023-04-18T10:05:04.333Z,15.53
2023-04-18T10:07:31.444Z,15.33
2023-04-18T10:09:57.905Z,15.52
2023-04-18T10:12:24.730Z,15.66
2023-04-18T10:14:51.359Z,15.73
2023-04-18T10:17:19.761Z,15.60
2023-04-18T10:19:47.501Z,15.63
2023-04-18T10:22:13.998Z,15.59
2023-04-18T10:24:49.726Z,16.13
2023-04-18T10:27:17.102Z,16.17
2023-04-18T10:29:48.222Z,16.93
2023-04-18T10:32:14.989Z,16.32
2023-04-18T10:34:41.473Z,15.97
2023-04-18T10:37:07.966Z,16.06
2023-04-18T10:39:53.088Z,16.00
2023-04-18T10:42:19.792Z,16.92
2023-04-18T10:45:06.217Z,16.25
2023-04-18T10:47:32.865Z,16.16
2023-04-18T10:50:01.568Z,16.48
2023-04-18T10:52:28.350Z,16.37
2023-04-18T10:55:21.262Z,15.57
2023-04-18T10:57:48.718Z,15.63
2023-04-18T11:00:16.635Z,15.32
2023-04-18T11:02:50.535Z,15.33
2023-04-18T11:05:21.464Z,15.33
2023-04-18T11:07:51.146Z,15.03
2023-04-18T11:10:19.901Z,15.48
2023-04-18T11:12:46.614Z,15.16
2023-04-18T11:15:17.239Z,15.12
2023-04-18T11:17:44.130Z,15.05
2023-04-18T11:20:12.788Z,15.08
2023-04-18T11:22:48.768Z,15.14
2023-04-18T11:25:16.356Z,15.12
2023-04-18T11:27:47.012Z,15.09
2023-04-18T11:30:14.463Z,15.04
2023-04-18T11:32:41.162Z,15.34
2023-04-18T11:35:11.996Z,15.34
2023-04-18T11:37:39.096Z,15.23
2023-04-18T11:40:09.074Z,15.24
2023-04-18T11:42:36.222Z,15.26
2023-04-18T11:45:03.178Z,15.17
2023-04-18T11:47:31.620Z,16.18
2023-04-18T11:49:58.204Z,15.58
2023-04-18T11:52:26.132Z,16.01
2023-04-18T11:54:52.866Z,15.49
2023-04-18T11:57:19.356Z,15.70
2023-04-18T11:59:50.075Z,15.82
2023-04-18T12:02:17.254Z,16.13
2023-04-18T12:04:52.018Z,16.56
2023-04-18T12:07:36.090Z,16.49
2023-04-18T12:10:03.962Z,16.19
2023-04-18T12:12:30.543Z,16.33
2023-04-18T12:15:00.758Z,15.85
2023-04-18T12:17:27.677Z,15.87
2023-04-18T12:19:55.415Z,15.58
2023-04-18T12:22:57.823Z,15.41
2023-04-18T12:25:29.087Z,15.50
2023-04-18T12:27:58.622Z,15.95
2023-04-18T12:30:29.561Z,16.18
2023-04-18T12:32:56.935Z,16.17
2023-04-18T12:35:24.070Z,15.44
2023-04-18T12:37:51.904Z,15.41
2023-04-18T12:40:22.839Z,15.35
2023-04-18T12:42:50.141Z,15.21
2023-04-18T12:45:17.290Z,15.49
2023-04-18T12:47:44.797Z,15.61
2023-04-18T12:50:15.021Z,15.65
2023-04-18T12:52:42.278Z,16.02
2023-04-18T12:55:09.524Z,16.16
2023-04-18T12:57:36.357Z,16.26
2023-04-18T13:00:06.373Z,16.19
2023-04-18T13:02:37.224Z,16.37
2023-04-18T13:05:07.644Z,16.91
2023-04-18T13:07:34.224Z,17.30
2023-04-18T13:10:01.003Z,16.98
2023-04-18T13:12:29.288Z,16.37
2023-04-18T13:14:56.174Z,16.48
2023-04-18T13:17:22.777Z,16.16
2023-04-18T13:19:49.299Z,16.12
2023-04-18T13:22:15.763Z,16.32
2023-04-18T13:24:42.279Z,16.24
2023-04-18T13:27:10.554Z,16.38
2023-04-18T13:29:38.568Z,16.17
2023-04-18T13:32:06.095Z,16.41
2023-04-18T13:34:34.387Z,16.12
2023-04-18T13:37:01.377Z,16.17
2023-04-18T13:39:27.917Z,16.38
2023-04-18T13:41:54.927Z,16.30
2023-04-18T13:44:21.482Z,16.47
2023-04-18T13:46:48.086Z,16.36
2023-04-18T13:49:14.780Z,16.59
2023-04-18T13:51:41.365Z,16.86
2023-04-18T13:54:07.890Z,16.71
2023-04-18T13:56:34.436Z,16.61
2023-04-18T13:59:00.913Z,16.20
2023-04-18T14:01:27.846Z,16.18
2023-04-18T14:03:54.692Z,16.02
2023-04-18T14:06:21.226Z,15.83
2023-04-18T14:08:48.969Z,15.73
2023-04-18T14:11:16.119Z,16.00
2023-04-18T14:13:44.557Z,16.36
2023-04-18T14:16:11.172Z,16.48
2023-04-18T14:18:38.117Z,16.42
2023-04-18T14:21:04.708Z,16.30
2023-04-18T14:23:31.156Z,15.88
2023-04-18T14:25:57.768Z,15.92
2023-04-18T14:28:25.293Z,15.89
2023-04-18T14:30:52.054Z,16.04
2023-04-18T14:33:18.624Z,15.96
2023-04-18T14:35:45.702Z,16.04
2023-04-18T14:38:12.254Z,15.62
2023-04-18T14:40:38.777Z,15.59
2023-04-18T14:43:05.310Z,15.72
2023-04-18T14:45:32.797Z,15.70
2023-04-18T14:47:59.632Z,15.40
2023-04-18T14:50:26.785Z,15.12
2023-04-18T14:52:53.292Z,15.13
2023-04-18T14:55:20.252Z,15.24
2023-04-18T14:57:47.031Z,15.04
2023-04-18T15:00:14.611Z,15.31
2023-04-18T15:02:41.797Z,15.34
2023-04-18T15:05:08.836Z,15.10
2023-04-18T15:07:37.423Z,14.96
2023-04-18T15:10:07.557Z,14.73
2023-04-18T15:12:34.056Z,15.02
2023-04-18T15:15:00.618Z,14.81
2023-04-18T15:17:27.698Z,14.87
2023-04-18T15:19:54.310Z,14.75
2023-04-18T15:22:20.736Z,15.12
2023-04-18T15:24:47.467Z,14.96
2023-04-18T15:27:13.976Z,15.18
2023-04-18T15:29:40.963Z,15.10
2023-04-18T15:32:07.858Z,14.98
2023-04-18T15:34:34.457Z,15.03
2023-04-18T15:37:00.928Z,14.92
2023-04-18T15:39:27.447Z,14.98
2023-04-18T15:41:57.157Z,14.88
2023-04-18T15:44:23.719Z,15.04
2023-04-18T15:46:50.910Z,14.83
2023-04-18T15:49:17.413Z,14.56
2023-04-18T15:51:44.118Z,14.44
2023-04-18T15:54:10.612Z,14.29
2023-04-18T15:56:37.196Z,14.45
2023-04-18T15:59:05.017Z,14.48
2023-04-18T16:01:32.265Z,14.30
2023-04-18T16:03:59.002Z,14.18
2023-04-18T16:06:26.605Z,14.37
2023-04-18T16:08:53.145Z,14.40
2023-04-18T16:11:19.731Z,14.15
2023-04-18T16:13:46.153Z,14.12
2023-04-18T16:16:12.672Z,13.92
2023-04-18T16:18:39.360Z,13.99
2023-04-18T16:21:06.041Z,13.89
2023-04-18T16:23:32.663Z,13.89
2023-04-18T16:25:59.143Z,13.89
2023-04-18T16:28:25.736Z,13.81
2023-04-18T16:30:55.381Z,13.73
2023-04-18T16:33:25.769Z,13.75
2023-04-18T16:35:53.019Z,13.77
2023-04-18T16:38:19.573Z,13.81
2023-04-18T16:40:46.031Z,13.79
2023-04-18T16:43:12.527Z,13.81
2023-04-18T16:45:38.965Z,13.87
2023-04-18T16:48:05.533Z,13.97
2023-04-18T16:50:32.044Z,13.68
2023-04-18T16:52:58.518Z,13.54
2023-04-18T16:55:26.348Z,13.54
2023-04-18T16:57:52.805Z,13.41
2023-04-18T17:00:19.296Z,13.49
2023-04-18T17:02:45.893Z,13.36
2023-04-18T17:05:12.623Z,13.20
2023-04-18T17:07:39.069Z,13.24
2023-04-18T17:10:06.368Z,13.23
2023-04-18T17:12:33.086Z,13.24
2023-04-18T17:14:59.577Z,13.24
2023-04-18T17:17:26.335Z,13.27
2023-04-18T17:19:52.882Z,13.20
2023-04-18T17:22:19.368Z,13.19
2023-04-18T17:24:45.842Z,13.22
2023-04-18T17:27:12.490Z,13.22
2023-04-18T17:29:39.064Z,13.16
2023-04-18T17:32:05.708Z,13.27
2023-04-18T17:34:32.334Z,13.25
2023-04-18T17:36:58.847Z,13.18
2023-04-18T17:39:25.476Z,13.17
2023-04-18T17:41:52.046Z,13.12
2023-04-18T17:44:18.529Z,13.08
2023-04-18T17:46:45.012Z,13.17
2023-04-18T17:49:11.871Z,13.11
2023-04-18T17:51:38.404Z,13.07
2023-04-18T17:54:05.397Z,12.99
2023-04-18T17:56:31.840Z,12.91
2023-04-18T17:58:58.375Z,12.83
2023-04-18T18:01:26.158Z,12.60
2023-04-18T18:03:53.705Z,12.51
2023-04-18T18:06:20.586Z,12.28
2023-04-18T18:08:47.124Z,12.30
2023-04-18T18:11:13.594Z,12.24
2023-04-18T18:13:40.187Z,12.32
2023-04-18T18:16:07.617Z,12.13
2023-04-18T18:18:34.224Z,11.98
2023-04-18T18:21:00.768Z,11.87
2023-04-18T18:23:27.346Z,11.75
2023-04-18T18:25:53.859Z,11.75
2023-04-18T18:28:20.375Z,11.50
2023-04-18T18:30:46.851Z,11.50
2023-04-18T18:33:13.799Z,11.73
2023-04-18T18:35:40.501Z,11.83
2023-04-18T18:38:07.182Z,11.74
2023-04-18T18:40:34.171Z,11.90
2023-04-18T18:43:00.710Z,11.71
2023-04-18T18:45:27.243Z,11.65
2023-04-18T18:47:53.786Z,11.55
2023-04-18T18:50:20.350Z,11.70
2023-04-18T18:52:46.903Z,11.94
2023-04-18T18:55:13.468Z,11.64
2023-04-18T18:57:40.003Z,11.59
2023-04-18T19:00:09.828Z,11.60
2023-04-18T19:02:36.794Z,11.57
2023-04-18T19:05:03.952Z,11.56
2023-04-18T19:07:30.720Z,11.63
2023-04-18T19:09:57.234Z,11.40
2023-04-18T19:12:23.705Z,11.69
2023-04-18T19:14:50.169Z,11.75
2023-04-18T19:17:21.921Z,11.67
2023-04-18T19:19:48.485Z,11.59
2023-04-18T19:22:14.945Z,11.89
2023-04-18T19:24:41.440Z,11.53
2023-04-18T19:27:08.207Z,11.69
2023-04-18T19:29:37.704Z,11.57
2023-04-18T19:32:04.344Z,11.33
2023-04-18T19:34:31.266Z,11.02
2023-04-18T19:36:57.732Z,11.61
2023-04-18T19:39:24.169Z,11.50
2023-04-18T19:41:50.602Z,11.54
2023-04-18T19:44:17.116Z,11.52
2023-04-18T19:46:43.605Z,11.46
2023-04-18T19:49:10.210Z,11.38
2023-04-18T19:51:37.237Z,11.53
2023-04-18T19:54:04.781Z,11.64
2023-04-18T19:56:31.643Z,11.76
2023-04-18T19:58:58.364Z,11.79
2023-04-18T20:01:25.738Z,11.61
2023-04-18T20:03:53.435Z,11.69
2023-04-18T20:06:20.283Z,11.73
2023-04-18T20:08:46.800Z,11.78
2023-04-18T20:11:16.418Z,11.70
2023-04-18T20:13:42.912Z,11.69
2023-04-18T20:16:09.475Z,11.80
2023-04-18T20:18:40.128Z,11.79
2023-04-18T20:21:07.538Z,11.86
2023-04-18T20:23:34.448Z,11.77
2023-04-18T20:26:00.962Z,11.82
2023-04-18T20:28:27.477Z,12.05
2023-04-18T20:30:54.016Z,11.94
2023-04-18T20:33:20.830Z,11.88
2023-04-18T20:35:47.293Z,12.03
2023-04-18T20:38:14.357Z,11.99
2023-04-18T20:40:44.958Z,11.94
2023-04-18T20:43:13.492Z,11.90
2023-04-18T20:45:42.868Z,11.65
2023-04-18T20:48:09.673Z,12.59
2023-04-18T20:50:36.119Z,12.04
2023-04-18T20:53:03.977Z,12.01
2023-04-18T20:55:30.544Z,12.01
2023-04-18T20:57:57.372Z,12.02
2023-04-18T21:00:23.986Z,11.93
2023-04-18T21:02:50.522Z,11.77
2023-04-18T21:05:17.083Z,12.00
2023-04-18T21:07:44.703Z,12.11
2023-04-18T21:10:12.269Z,12.25
2023-04-18T21:12:38.711Z,12.13
2023-04-18T21:15:05.596Z,11.81
2023-04-18T21:17:32.189Z,11.99
2023-04-18T21:19:58.875Z,12.17
2023-04-18T21:22:25.556Z,12.20
2023-04-18T21:24:52.174Z,12.13
2023-04-18T21:27:18.793Z,12.15
2023-04-18T21:29:45.280Z,12.15
2023-04-18T21:32:11.820Z,12.24
2023-04-18T21:34:38.276Z,12.29
2023-04-18T21:37:04.763Z,12.33
2023-04-18T21:39:31.291Z,12.21
2023-04-18T21:41:58.084Z,12.26
2023-04-18T21:44:24.830Z,12.23
2023-04-18T21:46:51.365Z,12.09
2023-04-18T21:49:17.837Z,12.23
2023-04-18T21:51:44.957Z,12.36
2023-04-18T21:54:11.532Z,12.28
2023-04-18T21:56:38.007Z,12.35
2023-04-18T21:59:04.475Z,12.57
2023-04-18T22:01:31.116Z,12.35
2023-04-18T22:03:57.767Z,12.34
2023-04-18T22:06:24.458Z,12.18
2023-04-18T22:08:51.609Z,12.27
2023-04-18T22:11:18.703Z,12.31
2023-04-18T22:13:45.833Z,12.36
2023-04-18T22:16:12.419Z,12.39
2023-04-18T22:18:38.915Z,12.34
2023-04-18T22:21:06.065Z,12.79
2023-04-18T22:23:32.563Z,12.84
2023-04-18T22:25:59.277Z,12.17
2023-04-18T22:28:27.799Z,11.96
2023-04-18T22:30:54.382Z,11.88
2023-04-18T22:33:20.907Z,11.83
2023-04-18T22:35:47.968Z,11.96
2023-04-18T22:38:14.489Z,11.83
2023-04-18T22:40:40.955Z,11.74
2023-04-18T22:43:07.509Z,11.84
2023-04-18T22:45:34.644Z,12.34
2023-04-18T22:48:01.264Z,11.72
2023-04-18T22:50:27.814Z,11.82
2023-04-18T22:52:54.252Z,11.70
2023-04-18T22:55:20.746Z,11.59
2023-04-18T22:57:47.213Z,12.20
2023-04-18T23:00:14.427Z,12.00
2023-04-18T23:02:41.495Z,12.15
2023-04-18T23:05:08.952Z,12.50
2023-04-18T23:07:35.489Z,12.00
2023-04-18T23:10:04.018Z,11.80
2023-04-18T23:12:30.612Z,11.73
2023-04-18T23:14:57.240Z,11.54
2023-04-18T23:17:23.823Z,11.49
2023-04-18T23:19:50.407Z,11.49
2023-04-18T23:22:17.058Z,11.42
2023-04-18T23:24:43.613Z,11.50
2023-04-18T23:27:10.197Z,11.48
2023-04-18T23:29:37.803Z,11.55
2023-04-18T23:32:04.888Z,11.44
2023-04-18T23:34:32.001Z,11.39
2023-04-18T23:36:58.538Z,11.53
2023-04-18T23:39:28.135Z,11.57
2023-04-18T23:41:54.776Z,11.59
2023-04-18T23:44:21.449Z,11.71
2023-04-18T23:46:48.260Z,11.70
2023-04-18T23:49:15.131Z,11.82
2023-04-18T23:51:41.619Z,11.74
2023-04-18T23:54:08.088Z,11.78
2023-04-18T23:56:34.941Z,11.61
2023-04-18T23:59:01.626Z,11.59
